createdAt,value
2019-03-20T00:00:56.393Z,3.36
2019-03-20T00:03:27.024Z,3.20
2019-03-20T00:05:58.918Z,3.10
2019-03-20T00:08:29.876Z,2.96
2019-03-20T00:11:00.734Z,2.94
2019-03-20T00:13:31.575Z,2.94
2019-03-20T00:16:02.443Z,2.94
2019-03-20T00:18:33.203Z,2.96
2019-03-20T00:21:03.851Z,2.99
2019-03-20T00:23:34.708Z,3.07
2019-03-20T00:26:05.341Z,3.07
2019-03-20T00:28:36.099Z,3.08
2019-03-20T00:31:06.765Z,3.06
2019-03-20T00:33:37.621Z,3.08
2019-03-20T00:36:08.375Z,3.12
2019-03-20T00:38:39.116Z,3.11
2019-03-20T00:41:09.776Z,3.12
2019-03-20T00:43:40.619Z,3.07
2019-03-20T00:46:11.388Z,3.02
2019-03-20T00:48:42.124Z,2.91
2019-03-20T00:51:12.997Z,2.83
2019-03-20T00:53:43.853Z,2.70
2019-03-20T00:56:14.609Z,2.73
2019-03-20T00:58:45.262Z,2.77
2019-03-20T01:01:16.524Z,2.76
2019-03-20T01:03:47.261Z,2.77
2019-03-20T01:06:19.055Z,2.70
2019-03-20T01:08:49.400Z,2.73
2019-03-20T01:11:20.241Z,2.56
2019-03-20T01:13:51.115Z,2.49
2019-03-20T01:16:21.869Z,2.51
2019-03-20T01:18:52.503Z,2.53
2019-03-20T01:21:23.372Z,2.50
2019-03-20T01:23:54.227Z,2.45
2019-03-20T01:26:24.863Z,2.42
2019-03-20T01:28:54.941Z,2.46
2019-03-20T01:31:25.497Z,2.41
2019-03-20T01:33:56.120Z,2.36
2019-03-20T01:36:26.771Z,2.29
2019-03-20T01:38:57.633Z,2.20
2019-03-20T01:41:37.607Z,2.18
2019-03-20T01:44:00.449Z,2.18
2019-03-20T01:46:31.103Z,2.17
2019-03-20T01:49:01.971Z,2.14
2019-03-20T01:51:32.809Z,2.12
2019-03-20T01:54:03.583Z,2.17
2019-03-20T01:56:34.218Z,2.26
2019-03-20T01:59:04.968Z,2.30
2019-03-20T02:01:35.876Z,1.89
2019-03-20T02:04:06.596Z,1.51
2019-03-20T02:06:38.269Z,1.43
2019-03-20T02:09:08.720Z,1.21
2019-03-20T02:11:39.573Z,1.14
2019-03-20T02:14:10.432Z,1.06
2019-03-20T02:16:41.188Z,1.00
2019-03-20T02:19:11.836Z,0.95
2019-03-20T02:21:42.690Z,0.97
2019-03-20T02:24:13.549Z,0.96
2019-03-20T02:26:44.301Z,0.95
2019-03-20T02:29:14.837Z,0.85
2019-03-20T02:31:45.708Z,0.73
2019-03-20T02:34:16.465Z,0.74
2019-03-20T02:36:47.215Z,0.72
2019-03-20T02:39:17.868Z,0.81
2019-03-20T02:41:48.724Z,0.84
2019-03-20T02:44:19.477Z,0.86
2019-03-20T02:46:50.236Z,0.85
2019-03-20T02:49:21.087Z,0.78
2019-03-20T02:51:51.947Z,0.72
2019-03-20T02:54:22.681Z,0.72
2019-03-20T02:56:52.758Z,0.63
2019-03-20T02:59:23.287Z,0.54
2019-03-20T03:01:56.493Z,0.54
2019-03-20T03:04:27.246Z,0.54
2019-03-20T03:06:59.025Z,0.66
2019-03-20T03:09:29.351Z,0.71
2019-03-20T03:12:00.225Z,0.74
2019-03-20T03:14:31.080Z,0.93
2019-03-20T03:17:01.815Z,0.95
2019-03-20T03:19:49.488Z,0.99
2019-03-20T03:22:20.302Z,0.90
2019-03-20T03:24:51.190Z,0.62
2019-03-20T03:27:21.927Z,0.43
2019-03-20T03:29:52.462Z,0.34
2019-03-20T03:32:23.337Z,0.33
2019-03-20T03:34:54.089Z,0.32
2019-03-20T03:37:24.857Z,0.33
2019-03-20T03:39:55.372Z,0.49
2019-03-20T03:42:26.250Z,0.55
2019-03-20T03:44:57.006Z,0.58
2019-03-20T03:47:27.738Z,0.58
2019-03-20T03:49:58.289Z,0.56
2019-03-20T03:52:29.179Z,0.61
2019-03-20T03:54:59.933Z,0.88
2019-03-20T03:57:30.573Z,0.95
2019-03-20T04:00:01.228Z,0.98
2019-03-20T04:02:31.985Z,1.06
2019-03-20T04:05:02.830Z,1.22
2019-03-20T04:07:34.618Z,1.27
2019-03-20T04:10:08.330Z,1.48
2019-03-20T04:12:39.078Z,1.61
2019-03-20T04:15:16.543Z,1.70
2019-03-20T04:17:47.037Z,1.79
2019-03-20T04:20:18.720Z,1.77
2019-03-20T04:22:49.155Z,1.82
2019-03-20T04:25:19.791Z,1.86
2019-03-20T04:27:49.933Z,1.76
2019-03-20T04:30:20.599Z,1.87
2019-03-20T04:32:51.353Z,1.85
2019-03-20T04:35:22.194Z,1.72
2019-03-20T04:37:52.837Z,1.71
2019-03-20T04:40:23.589Z,1.49
2019-03-20T04:42:54.464Z,1.48
2019-03-20T04:45:25.321Z,1.33
2019-03-20T04:47:55.958Z,1.46
2019-03-20T04:50:26.033Z,1.39
2019-03-20T04:52:56.556Z,1.14
2019-03-20T04:55:26.611Z,1.26
2019-03-20T04:57:57.126Z,1.05
2019-03-20T05:00:27.902Z,0.96
2019-03-20T05:03:00.976Z,0.89
2019-03-20T05:05:30.836Z,0.74
2019-03-20T05:08:02.620Z,0.70
2019-03-20T05:10:33.370Z,0.72
2019-03-20T05:13:04.243Z,0.51
2019-03-20T05:15:34.074Z,0.67
2019-03-20T05:18:04.615Z,0.80
2019-03-20T05:20:35.346Z,0.66
2019-03-20T05:23:08.384Z,0.65
2019-03-20T05:25:38.300Z,0.68
2019-03-20T05:28:09.159Z,0.99
2019-03-20T05:30:39.914Z,1.13
2019-03-20T05:33:10.563Z,1.24
2019-03-20T05:35:41.418Z,0.98
2019-03-20T05:38:12.171Z,1.19
2019-03-20T05:40:42.924Z,1.40
2019-03-20T05:43:13.577Z,1.00
2019-03-20T05:45:44.436Z,1.19
2019-03-20T05:48:15.070Z,1.07
2019-03-20T05:50:45.839Z,1.07
2019-03-20T05:53:16.474Z,1.25
2019-03-20T05:55:47.226Z,1.20
2019-03-20T05:58:17.561Z,1.32
2019-03-20T06:00:47.899Z,1.36
2019-03-20T06:03:18.263Z,1.61
2019-03-20T06:05:49.035Z,1.84
2019-03-20T06:08:20.794Z,1.85
2019-03-20T06:10:51.565Z,1.69
2019-03-20T06:13:22.307Z,1.51
2019-03-20T06:15:53.172Z,1.21
2019-03-20T06:18:23.909Z,1.27
2019-03-20T06:20:54.581Z,1.62
2019-03-20T06:23:25.440Z,1.84
2019-03-20T06:25:56.296Z,2.06
2019-03-20T06:28:27.046Z,2.23
2019-03-20T06:30:57.693Z,2.31
2019-03-20T06:33:28.551Z,2.39
2019-03-20T06:35:59.304Z,2.11
2019-03-20T06:38:30.060Z,2.48
2019-03-20T06:41:00.912Z,2.62
2019-03-20T06:43:31.772Z,2.79
2019-03-20T06:46:02.408Z,2.59
2019-03-20T06:48:32.585Z,2.48
2019-03-20T06:51:03.112Z,2.60
2019-03-20T06:53:33.275Z,2.51
2019-03-20T06:56:03.802Z,2.64
2019-03-20T06:58:33.861Z,2.88
2019-03-20T07:01:16.251Z,2.82
2019-03-20T07:04:05.263Z,3.10
2019-03-20T07:06:51.306Z,3.16
2019-03-20T07:09:51.617Z,3.36
2019-03-20T07:12:22.253Z,3.34
2019-03-20T07:14:53.125Z,3.27
2019-03-20T07:17:23.779Z,3.21
2019-03-20T07:19:54.897Z,3.28
2019-03-20T07:22:25.594Z,3.55
2019-03-20T07:24:56.526Z,3.71
2019-03-20T07:27:26.998Z,3.71
2019-03-20T07:29:57.854Z,3.72
2019-03-20T07:32:30.057Z,4.03
2019-03-20T07:35:00.587Z,4.26
2019-03-20T07:37:33.648Z,4.15
2019-03-20T07:40:04.448Z,4.27
2019-03-20T07:42:35.307Z,4.56
2019-03-20T07:45:08.905Z,4.46
2019-03-20T07:47:39.247Z,4.20
2019-03-20T07:50:11.535Z,4.63
2019-03-20T07:52:42.189Z,5.02
2019-03-20T07:55:12.939Z,5.11
2019-03-20T07:57:43.818Z,5.28
2019-03-20T08:00:14.969Z,5.64
2019-03-20T08:02:45.716Z,5.65
2019-03-20T08:05:16.468Z,5.64
2019-03-20T08:07:47.340Z,5.93
2019-03-20T08:10:20.309Z,6.20
2019-03-20T08:12:50.792Z,6.53
2019-03-20T08:15:23.818Z,6.55
2019-03-20T08:17:54.447Z,6.23
2019-03-20T08:20:31.645Z,5.86
2019-03-20T08:23:02.500Z,5.75
2019-03-20T08:25:33.271Z,5.86
2019-03-20T08:28:04.009Z,5.84
2019-03-20T08:30:33.968Z,5.83
2019-03-20T08:33:04.504Z,5.90
2019-03-20T08:35:35.145Z,5.98
2019-03-20T08:38:17.422Z,5.86
2019-03-20T08:40:40.027Z,5.81
2019-03-20T08:43:10.889Z,5.89
2019-03-20T08:45:41.659Z,5.90
2019-03-20T08:48:12.491Z,6.11
2019-03-20T08:50:43.255Z,6.23
2019-03-20T08:53:13.900Z,6.32
2019-03-20T08:55:44.754Z,6.30
2019-03-20T08:58:15.511Z,6.86
2019-03-20T09:00:46.265Z,6.85
2019-03-20T09:03:17.120Z,6.96
2019-03-20T09:05:48.080Z,7.18
2019-03-20T09:08:28.817Z,6.99
2019-03-20T09:10:52.244Z,6.91
2019-03-20T09:13:23.000Z,7.02
2019-03-20T09:15:53.757Z,7.56
2019-03-20T09:18:23.814Z,7.80
2019-03-20T09:20:54.339Z,7.76
2019-03-20T09:23:24.991Z,7.80
2019-03-20T09:25:55.850Z,7.53
2019-03-20T09:28:26.601Z,7.69
2019-03-20T09:30:57.354Z,7.68
2019-03-20T09:33:28.211Z,7.79
2019-03-20T09:35:58.968Z,8.00
2019-03-20T09:38:29.620Z,8.10
2019-03-20T09:41:00.354Z,8.29
2019-03-20T09:43:30.797Z,8.44
2019-03-20T09:46:01.450Z,8.50
2019-03-20T09:48:32.105Z,8.43
2019-03-20T09:51:02.184Z,8.70
2019-03-20T09:53:32.691Z,9.01
2019-03-20T09:56:03.459Z,9.12
2019-03-20T09:58:34.320Z,9.51
2019-03-20T10:01:05.059Z,10.09
2019-03-20T10:03:35.706Z,10.14
2019-03-20T10:06:05.784Z,10.49
2019-03-20T10:08:36.297Z,10.15
2019-03-20T10:11:08.088Z,9.90
2019-03-20T10:13:38.723Z,10.24
2019-03-20T10:16:09.493Z,9.84
2019-03-20T10:18:40.350Z,9.98
2019-03-20T10:21:10.984Z,10.59
2019-03-20T10:23:41.756Z,10.91
2019-03-20T10:26:12.595Z,11.12
2019-03-20T10:28:43.261Z,11.01
2019-03-20T10:31:14.018Z,11.73
2019-03-20T10:33:44.771Z,12.08
2019-03-20T10:36:17.529Z,11.84
2019-03-20T10:38:48.795Z,11.94
2019-03-20T10:41:19.469Z,12.43
2019-03-20T10:43:52.259Z,12.72
2019-03-20T10:46:22.321Z,12.68
2019-03-20T10:48:52.956Z,12.65
2019-03-20T10:51:22.923Z,12.71
2019-03-20T10:53:53.445Z,12.74
2019-03-20T10:56:24.112Z,12.70
2019-03-20T10:58:54.866Z,12.89
2019-03-20T11:01:25.522Z,13.23
2019-03-20T11:03:56.375Z,12.92
2019-03-20T11:06:27.227Z,13.50
2019-03-20T11:08:57.686Z,13.53
2019-03-20T11:11:29.251Z,13.74
2019-03-20T11:14:00.004Z,13.10
2019-03-20T11:16:30.863Z,13.15
2019-03-20T11:19:01.720Z,13.48
2019-03-20T11:21:32.570Z,13.51
2019-03-20T11:24:03.203Z,13.72
2019-03-20T11:26:33.866Z,13.88
2019-03-20T11:29:04.529Z,14.01
2019-03-20T11:31:35.381Z,13.90
2019-03-20T11:34:06.013Z,13.70
2019-03-20T11:36:36.791Z,13.85
2019-03-20T11:39:09.250Z,14.00
2019-03-20T11:41:39.604Z,14.30
2019-03-20T11:44:10.481Z,14.00
2019-03-20T11:46:41.232Z,13.59
2019-03-20T11:49:11.867Z,13.64
2019-03-20T11:51:45.607Z,13.84
2019-03-20T11:54:16.360Z,14.11
2019-03-20T11:56:47.012Z,14.55
2019-03-20T11:59:17.874Z,14.96
2019-03-20T12:01:48.500Z,14.96
2019-03-20T12:04:19.276Z,15.16
2019-03-20T12:06:49.936Z,14.84
2019-03-20T12:09:20.779Z,14.36
2019-03-20T12:11:51.637Z,14.31
2019-03-20T12:14:22.492Z,14.94
2019-03-20T12:16:53.144Z,14.66
2019-03-20T12:19:24.002Z,15.18
2019-03-20T12:21:55.043Z,15.22
2019-03-20T12:24:25.802Z,15.68
2019-03-20T12:26:56.676Z,15.55
2019-03-20T12:29:27.526Z,15.60
2019-03-20T12:31:58.381Z,15.57
2019-03-20T12:34:29.135Z,15.38
2019-03-20T12:36:59.788Z,15.20
2019-03-20T12:39:30.524Z,15.30
2019-03-20T12:42:01.277Z,15.53
2019-03-20T12:44:32.053Z,15.26
2019-03-20T12:47:02.701Z,14.72
2019-03-20T12:49:33.559Z,14.23
2019-03-20T12:52:04.417Z,13.77
2019-03-20T12:54:35.168Z,14.19
2019-03-20T12:57:05.817Z,14.90
2019-03-20T12:59:36.674Z,14.58
2019-03-20T13:02:08.299Z,14.19
2019-03-20T13:04:38.880Z,13.85
2019-03-20T13:07:09.652Z,13.74
2019-03-20T13:09:40.409Z,14.15
2019-03-20T13:12:12.062Z,14.00
2019-03-20T13:14:42.525Z,13.92
2019-03-20T13:17:13.382Z,13.92
2019-03-20T13:19:44.120Z,13.76
2019-03-20T13:22:14.993Z,13.68
2019-03-20T13:24:45.749Z,13.81
2019-03-20T13:27:16.404Z,13.92
2019-03-20T13:29:47.237Z,13.74
2019-03-20T13:32:18.020Z,13.91
2019-03-20T13:34:48.762Z,13.86
2019-03-20T13:37:19.401Z,14.06
2019-03-20T13:39:50.273Z,13.87
2019-03-20T13:42:21.023Z,13.63
2019-03-20T13:44:51.881Z,13.69
2019-03-20T13:47:22.737Z,13.62
2019-03-20T13:49:53.593Z,13.70
2019-03-20T13:52:24.225Z,13.75
2019-03-20T13:54:54.897Z,13.85
2019-03-20T13:57:25.753Z,13.92
2019-03-20T13:59:56.507Z,13.84
2019-03-20T14:02:27.260Z,13.82
2019-03-20T14:04:57.913Z,13.68
2019-03-20T14:07:28.766Z,13.57
2019-03-20T14:09:59.522Z,13.35
2019-03-20T14:12:33.416Z,13.44
2019-03-20T14:15:03.261Z,13.38
2019-03-20T14:17:34.239Z,13.38
2019-03-20T14:20:08.061Z,13.25
2019-03-20T14:22:38.799Z,13.03
2019-03-20T14:25:11.103Z,12.93
2019-03-20T14:27:41.427Z,12.93
2019-03-20T14:30:17.784Z,12.95
2019-03-20T14:32:48.155Z,13.04
2019-03-20T14:35:18.924Z,12.98
2019-03-20T14:37:49.719Z,12.88
2019-03-20T14:40:23.490Z,12.87
2019-03-20T14:42:54.016Z,12.70
2019-03-20T14:45:24.808Z,12.53
2019-03-20T14:47:56.158Z,12.46
2019-03-20T14:50:31.309Z,12.28
2019-03-20T14:53:01.673Z,12.16
2019-03-20T18:51:56.797Z,7.78
2019-03-20T18:54:27.568Z,7.74
2019-03-20T18:56:58.325Z,7.66
2019-03-20T18:59:28.973Z,7.54
2019-03-20T19:01:59.828Z,7.48
2019-03-20T19:04:30.590Z,7.41
2019-03-20T19:07:01.338Z,7.38
2019-03-20T19:09:32.307Z,7.34
2019-03-20T19:12:08.522Z,7.30
2019-03-20T19:14:35.234Z,7.24
2019-03-20T19:17:05.889Z,7.22
2019-03-20T19:19:36.745Z,7.24
2019-03-20T19:22:07.814Z,7.26
2019-03-20T19:24:38.438Z,7.22
2019-03-20T19:27:08.407Z,7.15
2019-03-20T19:29:38.923Z,7.21
2019-03-20T19:32:09.694Z,7.21
2019-03-20T19:34:40.430Z,7.13
2019-03-20T19:37:11.306Z,7.04
2019-03-20T19:39:44.818Z,6.97
2019-03-20T19:42:20.223Z,6.90
2019-03-20T19:44:49.189Z,6.91
2019-03-20T19:47:20.047Z,6.90
2019-03-20T19:49:50.799Z,6.87
2019-03-20T19:52:21.657Z,6.81
2019-03-20T19:54:53.431Z,6.79
2019-03-20T19:57:23.881Z,6.73
2019-03-20T19:59:54.735Z,6.68
2019-03-20T20:02:25.592Z,6.68
2019-03-20T20:04:56.229Z,6.63
2019-03-20T20:07:26.305Z,6.67
2019-03-20T20:09:56.831Z,6.65
2019-03-20T20:12:31.390Z,6.66
2019-03-20T20:14:59.770Z,6.67
2019-03-20T20:17:30.609Z,6.68
2019-03-20T20:20:01.383Z,6.62
2019-03-20T20:22:32.136Z,6.58
2019-03-20T20:25:02.992Z,6.55
2019-03-20T20:27:33.748Z,6.58
2019-03-20T20:30:07.057Z,6.59
2019-03-20T20:32:37.810Z,6.60
2019-03-20T20:35:10.098Z,6.58
2019-03-20T20:37:40.549Z,6.55
2019-03-20T20:40:29.093Z,6.52
2019-03-20T20:42:59.949Z,6.48
2019-03-20T20:45:30.601Z,6.48
2019-03-20T20:48:01.462Z,6.46
2019-03-20T20:50:32.222Z,6.45
2019-03-20T20:53:02.998Z,6.46
2019-03-20T20:55:33.926Z,6.44
2019-03-20T20:58:04.781Z,6.41
2019-03-20T21:00:35.553Z,6.39
2019-03-20T21:03:06.168Z,6.31
2019-03-20T21:05:37.450Z,6.34
2019-03-20T21:08:08.185Z,6.32
2019-03-20T21:10:38.840Z,6.34
2019-03-20T21:13:09.711Z,6.31
2019-03-20T21:15:45.479Z,6.30
2019-03-20T21:18:35.134Z,6.28
2019-03-20T21:21:05.908Z,6.27
2019-03-20T21:23:59.260Z,6.26
2019-03-20T21:26:35.679Z,6.27
2019-03-20T21:29:35.340Z,6.27
2019-03-20T21:32:15.195Z,6.25
2019-03-20T21:35:22.566Z,6.26
2019-03-20T21:38:10.805Z,6.25
2019-03-20T21:41:02.526Z,6.20
2019-03-20T21:44:00.572Z,6.19
2019-03-20T21:46:49.528Z,6.18
2019-03-20T21:49:20.206Z,6.15
2019-03-20T21:51:50.833Z,6.18
2019-03-20T21:54:50.632Z,6.16
2019-03-20T21:57:28.883Z,6.15
2019-03-20T22:00:14.438Z,6.14
2019-03-20T22:02:45.499Z,6.13
2019-03-20T22:05:53.812Z,6.13
2019-03-20T22:08:24.561Z,6.17
2019-03-20T22:11:17.609Z,6.16
2019-03-20T22:13:51.429Z,6.13
2019-03-20T22:16:43.439Z,6.14
2019-03-20T22:19:50.503Z,6.08
2019-03-20T22:22:42.545Z,6.10
2019-03-20T22:25:19.017Z,6.08
2019-03-20T22:27:55.591Z,6.05
2019-03-20T22:30:26.261Z,6.05
2019-03-20T22:33:05.797Z,6.05
2019-03-20T22:35:39.722Z,6.05
2019-03-20T22:38:13.561Z,6.03
2019-03-20T22:41:05.487Z,6.00
2019-03-20T22:43:40.842Z,6.02
2019-03-20T22:46:31.537Z,6.06
2019-03-20T22:49:06.407Z,6.05
2019-03-20T22:52:01.375Z,6.05
2019-03-20T22:54:43.381Z,5.99
2019-03-20T22:57:44.509Z,5.98
2019-03-20T23:00:18.564Z,5.96
2019-03-20T23:02:52.040Z,5.93
2019-03-20T23:05:24.337Z,5.92
2019-03-20T23:07:55.097Z,5.94
2019-03-20T23:10:25.744Z,5.89
2019-03-20T23:12:56.604Z,5.88
2019-03-20T23:15:27.235Z,5.91
2019-03-20T23:17:58.008Z,5.93
2019-03-20T23:20:29.253Z,5.89
2019-03-20T23:23:00.033Z,5.92
2019-03-20T23:25:30.865Z,5.89
2019-03-20T23:28:01.742Z,5.86
2019-03-20T23:30:34.214Z,5.87
2019-03-20T23:33:04.778Z,5.85
2019-03-20T23:35:34.635Z,5.79
2019-03-20T23:38:05.162Z,5.79
2019-03-20T23:40:36.208Z,5.75
2019-03-20T23:43:10.289Z,5.78
2019-03-20T23:45:40.986Z,5.76
2019-03-20T23:48:24.851Z,5.77
2019-03-20T23:51:07.570Z,5.66
2019-03-20T23:53:39.119Z,5.62
2019-03-20T23:56:09.898Z,5.64
2019-03-20T23:58:41.551Z,5.62
